ADDS METAR Data INFO
IDs: Format: Raw Decoded Include TAF

Data at: 1907 UTC 23 Apr 2018

KCHK 231855Z AUTO 34013G17KT 10SM CLR 21/10 A3006 RMK AO2 T02060097
KCHK 231835Z AUTO 01009KT 10SM SCT044 20/10 A3007 RMK AO2 T02030099
KCHK 231815Z AUTO 35012G16KT 10SM SCT042 20/10 A3008 RMK AO2 T02040104
KCHK 231755Z AUTO 34012KT 10SM SCT042 20/10 A3009 RMK AO2 T01960101 10199 20083
KCHK 231735Z AUTO 01015KT 10SM CLR 20/10 A3009 RMK AO2 T01970102
KCHK 231715Z AUTO 34014G17KT 10SM CLR 19/10 A3010 RMK AO2 T01890099
KCHK 231655Z AUTO 36015G19KT 10SM SCT037 19/10 A3011 RMK AO2 T01860096
KCHK 231635Z AUTO 02016G20KT 10SM SCT037 18/10 A3011 RMK AO2 T01820097
KCHK 231615Z AUTO 02014KT 10SM CLR 18/09 A3011 RMK AO2 T01790094
KCHK 231555Z AUTO 02014G19KT 10SM CLR 17/09 A3011 RMK AO2 T01740094
KCHK 231535Z AUTO 01015G19KT 10SM CLR 17/09 A3011 RMK AO2 T01740094
KCHK 231515Z AUTO 01016G19KT 10SM CLR 16/09 A3010 RMK AO2 T01640088
KCHK 231455Z AUTO 01016KT 10SM CLR 16/08 A3011 RMK AO2 T01570083
KCHK 231435Z AUTO 02014KT 10SM CLR 15/08 A3011 RMK AO2 T01530085
KCHK 231415Z AUTO 01014KT 10SM CLR 15/09 A3011 RMK AO2 T01500086
KCHK 231355Z AUTO 35008KT CLR 14/09 A3011 RMK AO2 T01390092
KCHK 231335Z AUTO 32007KT 10SM CLR 13/09 A3011 RMK AO2 T01260094
KCHK 231315Z AUTO 32008KT 10SM CLR 11/09 A3011 RMK AO2 T01150089
KCHK 231255Z AUTO 31008KT 10SM CLR 10/08 A3011 RMK AO2 T01030085
KCHK 231235Z AUTO 31007KT 10SM CLR 09/08 A3010 RMK AO2 T00910078
KCHK 231215Z AUTO 30006KT 7SM CLR 08/07 A3009 RMK AO2 T00830073
KCHK 231155Z AUTO 31007KT 7SM CLR 09/07 A3008 RMK AO2 T00860074 10124 20078
KCHK 231135Z AUTO 29007KT 7SM CLR 08/07 A3008 RMK AO2 T00820071
KCHK 231115Z AUTO 30005KT 10SM CLR 08/07 A3007 RMK AO2 T00820070
KCHK 231055Z AUTO 31007KT 10SM CLR 09/07 A3006 RMK AO2 T00880073
KCHK 231035Z AUTO 32006KT 10SM CLR 09/07 A3005 RMK AO2 T00880074
KCHK 231015Z AUTO 31007KT 10SM CLR 10/08 A3005 RMK AO2 T00950077
KCHK 230955Z AUTO 30006KT 10SM CLR 09/08 A3005 RMK AO2 T00940078
KCHK 230935Z AUTO 32005KT 10SM SCT019 10/08 A3005 RMK AO2 T00980083
KCHK 230915Z AUTO 34006KT 10SM BKN017 11/09 A3005 RMK AO2 T01080089
KCHK 230855Z AUTO 34007KT 10SM OVC017 11/09 A3005 RMK AO2 T01130092
KCHK 230835Z AUTO 35010KT 10SM OVC019 12/09 A3005 RMK AO2 T01210091
KCHK 230815Z AUTO 34008KT 10SM OVC019 12/09 A3005 RMK AO2 T01200090
KCHK 230755Z AUTO 33009KT 10SM OVC019 12/09 A3004 RMK AO2 T01210090
KCHK 230735Z AUTO 33008KT 10SM OVC019 12/09 A3005 RMK AO2 T01220092
KCHK 230715Z AUTO 34010KT 10SM OVC017 12/09 A3005 RMK AO2 T01230092
KCHK 230655Z AUTO 35012KT 10SM OVC017 12/09 A3005 RMK AO2 T01230091
KCHK 230635Z AUTO 35009KT 10SM OVC019 12/09 A3005 RMK AO2 T01220092
KCHK 230615Z AUTO 36012KT 10SM OVC019 12/09 A3006 RMK AO2 T01230090
KCHK 230555Z AUTO 35013G16KT 10SM OVC021 12/09 A3006 RMK AO2 T01230090 10174 20099
KCHK 230535Z AUTO 36011KT 10SM OVC021 12/09 A3006 RMK AO2 T01220091
KCHK 230515Z AUTO 35011G16KT 10SM OVC021 12/09 A3006 RMK AO2 T01190091
KCHK 230455Z AUTO 36011KT 10SM BKN019 BKN035 12/09 A3007 RMK AO2 T01180090
KCHK 230435Z AUTO 01013KT 10SM SCT033 11/09 A3006 RMK AO2 T01050086
KCHK 230415Z AUTO 35008KT 10SM CLR 10/08 A3007 RMK AO2 T01020082
KCHK 230355Z AUTO 36008KT 10SM CLR 10/08 A3007 RMK AO2 T01020084
KCHK 230335Z AUTO 35007KT 10SM SCT049 10/08 A3007 RMK AO2 T01010085
KCHK 230315Z AUTO 34005KT 10SM CLR 10/08 A3007 RMK AO2 T01020084
KCHK 230255Z AUTO 34005KT 10SM CLR 11/09 A3007 RMK AO2 T01130086
KCHK 230235Z AUTO 01009KT 10SM CLR 12/09 A3006 RMK AO2 T01190087
KCHK 230215Z AUTO 36010KT 10SM CLR 12/09 A3005 RMK AO2 T01230087
KCHK 230155Z AUTO 01012KT 10SM SCT060 13/08 A3004 RMK AO2 T01310085
KCHK 230135Z AUTO 01010KT 10SM BKN060 14/08 A3003 RMK AO2 T01350083
KCHK 230115Z AUTO 02011KT 10SM CLR 14/08 A3003 RMK AO2 T01430084
KCHK 230055Z AUTO 02009KT 10SM CLR 15/08 A3002 RMK AO2 T01490085
KCHK 230035Z AUTO 03010KT 10SM SCT050 16/08 A3001 RMK AO2 T01590082
KCHK 230015Z AUTO 03013KT 10SM SCT050 17/08 A3000 RMK AO2 T01680078
KCHK 222355Z AUTO 36011KT 10SM CLR 17/08 A3000 RMK AO2 T01750080 10190 20143 401900061
KCHK 222335Z AUTO 36015KT 10SM CLR 18/07 A3000 RMK AO2 T01780074
KCHK 222315Z AUTO 36016KT 10SM SCT048 18/08 A3000 RMK AO2 T01810076
KCHK 222255Z AUTO 36017G21KT 10SM SCT048 18/08 A3000 RMK AO2 T01820076
KCHK 222235Z AUTO 01016G24KT 10SM SCT048 18/08 A3000 RMK AO2 T01790078
KCHK 222215Z AUTO 36019KT 10SM SCT046 18/08 A3000 RMK AO2 T01790076
KCHK 222155Z AUTO 01018KT 10SM SCT046 18/08 A3001 RMK AO2 T01850077
KCHK 222135Z AUTO 35013G20KT 10SM SCT046 18/08 A3001 RMK AO2 T01830081
KCHK 222115Z AUTO 36015G22KT 10SM SCT045 18/08 A3001 RMK AO2 T01830081
KCHK 222055Z AUTO 34016KT 10SM SCT043 18/08 A3001 RMK AO2 T01810081
KCHK 222035Z AUTO 35019G25KT SCT040 18/08 A3002 RMK AO2 T01790080
KCHK 222015Z AUTO 34017G24KT 10SM SCT038 18/08 A3003 RMK AO2 T01760085
KCHK 221955Z AUTO 35019KT 10SM SCT037 17/08 A3004 RMK AO2 T01700083
KCHK 221935Z AUTO 36020G25KT 10SM SCT037 17/08 A3005 RMK AO2 T01660081
KCHK 221915Z AUTO 35017G26KT 10SM OVC037 16/08 A3005 RMK AO2 T01600078
KCHK 221855Z AUTO 35020KT 10SM OVC035 16/08 A3005 RMK AO2 T01590075
KCHK 221835Z AUTO 35020G25KT 10SM OVC035 16/08 A3006 RMK AO2 T01570080
KCHK 221815Z AUTO 35020KT 10SM OVC033 15/07 A3006 RMK AO2 T01460074
KCHK 221755Z AUTO 34021G25KT 10SM OVC033 14/07 A3007 RMK AO2 T01400070 10144 20061
KCHK 221735Z AUTO 34018G26KT 10SM BKN028 OVC034 14/08 A3008 RMK AO2 T01420078
KCHK 221715Z AUTO 33018KT 10SM OVC028 13/08 A3008 RMK AO2 T01320076
KCHK 221655Z AUTO 34022KT 10SM SCT026 OVC031 13/07 A3008 RMK AO2 T01330075
KCHK 221635Z AUTO 34019G24KT 10SM SCT026 BKN033 13/07 A3008 RMK AO2 T01290073
KCHK 221615Z AUTO 34017KT 10SM BKN024 BKN029 13/08 A3008 RMK AO2 T01330077
KCHK 221555Z AUTO 36018KT 10SM BKN026 13/07 A3008 RMK AO2 T01300072
KCHK 221535Z AUTO 35020KT 10SM BKN026 12/07 A3009 RMK AO2 T01250066
KCHK 221515Z AUTO 35016G27KT 10SM BKN024 BKN032 11/06 A3009 RMK AO2 T01140060
KCHK 221455Z AUTO 35019G25KT 10SM BKN024 12/06 A3009 RMK AO2 T01160065
KCHK 221435Z AUTO 34018KT BKN024 BKN028 10/06 A3009 RMK AO2 T01050060
KCHK 221415Z AUTO 34016KT 10SM SCT022 BKN027 10/06 A3009 RMK AO2 T01000060
KCHK 221355Z AUTO 32016KT 10SM SCT018 BKN027 10/06 A3010 RMK AO2 T00960063
KCHK 221335Z AUTO 32014KT 10SM BKN018 BKN023 09/06 A3010 RMK AO2 T00890061
KCHK 221315Z AUTO 31012KT 10SM BKN018 08/06 A3010 RMK AO2 T00820058
KCHK 221255Z AUTO 32010KT 10SM CLR 08/05 A3010 RMK AO2 T00750055
KCHK 221235Z AUTO 30005KT 10SM SCT017 07/05 A3010 RMK AO2 T00680053
KCHK 221215Z AUTO 28006KT 10SM SCT017 06/05 A3009 RMK AO2 T00630048
KCHK 221155Z AUTO 30007KT 10SM CLR 06/05 A3008 RMK AO2 T00640049 10089 20061 70061
KCHK 221135Z AUTO 33007KT 10SM CLR 06/05 A3007 RMK AO2 T00640049
KCHK 221115Z AUTO 33008KT 10SM SCT014 06/05 A3007 RMK AO2 T00640050
KCHK 221055Z AUTO 32007KT 10SM SCT014 06/05 A3006 RMK AO2 T00650050
KCHK 221035Z AUTO 33010KT 10SM SCT014 07/05 A3006 RMK AO2 T00660051
KCHK 221015Z AUTO 33012KT 10SM CLR 07/05 A3006 RMK AO2 T00660052
KCHK 220955Z AUTO 33011KT 10SM CLR 07/05 A3007 RMK AO2 T00650052
KCHK 220935Z AUTO 34011KT 10SM CLR 07/05 A3006 RMK AO2 T00660052
KCHK 220915Z AUTO 33012KT 10SM CLR 07/05 A3006 RMK AO2 T00690054
KCHK 220855Z AUTO 34011KT 10SM CLR 07/06 A3006 RMK AO2 T00700056
KCHK 220835Z AUTO 35013KT 10SM BKN015 BKN038 07/06 A3007 RMK AO2 T00720058
KCHK 220815Z AUTO 34007KT 10SM OVC015 07/06 A3009 RMK AO2 T00720059
KCHK 220755Z AUTO 32009KT 10SM BKN015 08/06 A3010 RMK AO2 LTG DSNT E T00750061
KCHK 220735Z AUTO 32009KT 10SM BKN013 BKN018 BKN024 08/06 A3011 RMK AO2 T00790064
KCHK 220715Z AUTO 34010KT 10SM BKN011 OVC022 08/07 A3009 RMK AO2 T00830069